West Mineola, Texas
Current Conditions -  °F | °C
As of 2:35 AM on Friday 19 Dec 2014 (Local Time) from KJDD Reporting Station
Haze Haze  
Wind Chill: 46°   Ceiling: 400
Heat Index: 46°   Visibility: 3mi
Dew Point: 46°   Wind: 3mph
Humidity: 100%   Direction: 20°NNE
Pressure: 30.15"   Gusts: NA
Location:  32.6629°N, 95.4808°W
Report Text: KJDD 190835Z AUTO 02003KT 3SM BR OVC004 08/08 A3015 RMK AO2
Loading
Personal Weather Stations






























Interactive Weather Map New forecast layout! Learn more

10-Day Weather Forecast

Advertisements
Track Severe Weather on mobile